sensor_id;sensor_type;location;lat;lon;timestamp;P1;durP1;ratioP1;P2;durP2;ratioP2
42702;SDS011;28341;52.064;4.920;2022-07-29T00:00:49;8.27;;;2.28;;
42702;SDS011;28341;52.064;4.920;2022-07-29T00:02:53;4.55;;;1.85;;
42702;SDS011;28341;52.064;4.920;2022-07-29T00:04:57;7.55;;;1.80;;
42702;SDS011;28341;52.064;4.920;2022-07-29T00:07:04;7.32;;;1.45;;
42702;SDS011;28341;52.064;4.920;2022-07-29T00:09:09;2.88;;;1.80;;
42702;SDS011;28341;52.064;4.920;2022-07-29T00:11:13;5.30;;;1.50;;
42702;SDS011;28341;52.064;4.920;2022-07-29T00:13:18;4.95;;;1.70;;
42702;SDS011;28341;52.064;4.920;2022-07-29T00:15:22;4.70;;;1.63;;
42702;SDS011;28341;52.064;4.920;2022-07-29T00:17:26;6.00;;;1.73;;
42702;SDS011;28341;52.064;4.920;2022-07-29T00:19:31;5.18;;;1.70;;
42702;SDS011;28341;52.064;4.920;2022-07-29T00:21:35;6.80;;;1.90;;
42702;SDS011;28341;52.064;4.920;2022-07-29T00:23:42;8.13;;;1.40;;
42702;SDS011;28341;52.064;4.920;2022-07-29T00:25:46;3.30;;;1.55;;
42702;SDS011;28341;52.064;4.920;2022-07-29T00:27:51;4.10;;;1.40;;
42702;SDS011;28341;52.064;4.920;2022-07-29T00:29:55;4.70;;;1.50;;
42702;SDS011;28341;52.064;4.920;2022-07-29T00:32:00;3.40;;;1.52;;
42702;SDS011;28341;52.064;4.920;2022-07-29T00:34:04;3.35;;;1.58;;
42702;SDS011;28341;52.064;4.920;2022-07-29T00:36:29;5.18;;;1.85;;
42702;SDS011;28341;52.064;4.920;2022-07-29T00:38:30;5.60;;;1.65;;
42702;SDS011;28341;52.064;4.920;2022-07-29T00:40:37;5.90;;;1.92;;
42702;SDS011;28341;52.064;4.920;2022-07-29T00:42:42;5.68;;;1.70;;
42702;SDS011;28341;52.064;4.920;2022-07-29T00:44:47;3.50;;;1.50;;
42702;SDS011;28341;52.064;4.920;2022-07-29T00:46:51;5.18;;;1.75;;
42702;SDS011;28341;52.064;4.920;2022-07-29T00:48:55;6.47;;;1.63;;
42702;SDS011;28341;52.064;4.920;2022-07-29T00:51:01;3.47;;;1.80;;
42702;SDS011;28341;52.064;4.920;2022-07-29T00:53:07;3.78;;;1.48;;
42702;SDS011;28341;52.064;4.920;2022-07-29T00:55:13;8.00;;;1.83;;
42702;SDS011;28341;52.064;4.920;2022-07-29T00:57:21;3.97;;;2.00;;
42702;SDS011;28341;52.064;4.920;2022-07-29T00:59:25;3.92;;;1.75;;
42702;SDS011;28341;52.064;4.920;2022-07-29T01:01:31;5.15;;;1.67;;
42702;SDS011;28341;52.064;4.920;2022-07-29T01:03:35;11.00;;;2.50;;
42702;SDS011;28341;52.064;4.920;2022-07-29T01:05:39;4.75;;;1.70;;
42702;SDS011;28341;52.064;4.920;2022-07-29T01:07:46;4.93;;;2.67;;
42702;SDS011;28341;52.064;4.920;2022-07-29T01:09:52;9.75;;;2.10;;
42702;SDS011;28341;52.064;4.920;2022-07-29T01:11:57;4.25;;;1.70;;
42702;SDS011;28341;52.064;4.920;2022-07-29T01:14:05;4.13;;;1.63;;
42702;SDS011;28341;52.064;4.920;2022-07-29T01:16:13;5.18;;;1.80;;
42702;SDS011;28341;52.064;4.920;2022-07-29T01:18:26;10.07;;;2.00;;
42702;SDS011;28341;52.064;4.920;2022-07-29T01:20:39;7.63;;;1.75;;
42702;SDS011;28341;52.064;4.920;2022-07-29T01:23:10;5.65;;;1.92;;
42702;SDS011;28341;52.064;4.920;2022-07-29T01:25:45;5.72;;;2.00;;
42702;SDS011;28341;52.064;4.920;2022-07-29T01:28:13;5.40;;;1.98;;
42702;SDS011;28341;52.064;4.920;2022-07-29T01:30:40;4.00;;;1.52;;
42702;SDS011;28341;52.064;4.920;2022-07-29T01:32:47;5.28;;;1.60;;
42702;SDS011;28341;52.064;4.920;2022-07-29T01:34:53;4.70;;;1.88;;
42702;SDS011;28341;52.064;4.920;2022-07-29T01:37:03;3.90;;;1.77;;
42702;SDS011;28341;52.064;4.920;2022-07-29T01:39:17;4.97;;;1.60;;
42702;SDS011;28341;52.064;4.920;2022-07-29T01:41:25;4.18;;;1.75;;
42702;SDS011;28341;52.064;4.920;2022-07-29T01:43:33;3.40;;;1.58;;
42702;SDS011;28341;52.064;4.920;2022-07-29T01:45:47;5.53;;;1.75;;
42702;SDS011;28341;52.064;4.920;2022-07-29T01:47:56;5.82;;;2.65;;
42702;SDS011;28341;52.064;4.920;2022-07-29T01:50:03;8.68;;;2.30;;
42702;SDS011;28341;52.064;4.920;2022-07-29T01:52:13;5.90;;;2.08;;
42702;SDS011;28341;52.064;4.920;2022-07-29T01:54:25;9.35;;;2.03;;
42702;SDS011;28341;52.064;4.920;2022-07-29T01:56:34;4.97;;;1.48;;
42702;SDS011;28341;52.064;4.920;2022-07-29T01:58:42;4.97;;;1.65;;
42702;SDS011;28341;52.064;4.920;2022-07-29T02:00:47;4.55;;;2.20;;
42702;SDS011;28341;52.064;4.920;2022-07-29T02:02:53;6.15;;;1.63;;
42702;SDS011;28341;52.064;4.920;2022-07-29T02:04:58;5.75;;;1.77;;
42702;SDS011;28341;52.064;4.920;2022-07-29T02:07:04;6.25;;;2.00;;
42702;SDS011;28341;52.064;4.920;2022-07-29T02:09:10;4.82;;;1.48;;
42702;SDS011;28341;52.064;4.920;2022-07-29T02:11:16;10.02;;;2.25;;
42702;SDS011;28341;52.064;4.920;2022-07-29T02:13:20;4.18;;;1.80;;
42702;SDS011;28341;52.064;4.920;2022-07-29T02:15:30;3.38;;;1.70;;
42702;SDS011;28341;52.064;4.920;2022-07-29T02:17:38;2.75;;;1.65;;
42702;SDS011;28341;52.064;4.920;2022-07-29T02:19:47;5.60;;;1.88;;
42702;SDS011;28341;52.064;4.920;2022-07-29T02:21:53;6.57;;;1.45;;
42702;SDS011;28341;52.064;4.920;2022-07-29T02:23:59;2.47;;;1.70;;
42702;SDS011;28341;52.064;4.920;2022-07-29T02:26:05;5.05;;;1.63;;
42702;SDS011;28341;52.064;4.920;2022-07-29T02:28:10;5.03;;;1.73;;
42702;SDS011;28341;52.064;4.920;2022-07-29T02:30:15;3.90;;;1.80;;
42702;SDS011;28341;52.064;4.920;2022-07-29T02:32:23;4.07;;;1.83;;
42702;SDS011;28341;52.064;4.920;2022-07-29T02:34:28;5.25;;;2.10;;
42702;SDS011;28341;52.064;4.920;2022-07-29T02:36:33;3.13;;;1.90;;
42702;SDS011;28341;52.064;4.920;2022-07-29T02:38:38;4.95;;;1.77;;
42702;SDS011;28341;52.064;4.920;2022-07-29T02:40:51;4.03;;;1.90;;
42702;SDS011;28341;52.064;4.920;2022-07-29T02:42:56;9.32;;;2.42;;
42702;SDS011;28341;52.064;4.920;2022-07-29T02:45:00;2.42;;;1.77;;
42702;SDS011;28341;52.064;4.920;2022-07-29T02:47:07;4.05;;;1.95;;
42702;SDS011;28341;52.064;4.920;2022-07-29T02:49:22;3.50;;;2.10;;
42702;SDS011;28341;52.064;4.920;2022-07-29T02:51:40;4.25;;;1.90;;
42702;SDS011;28341;52.064;4.920;2022-07-29T02:53:47;8.88;;;2.40;;
42702;SDS011;28341;52.064;4.920;2022-07-29T02:55:55;5.47;;;2.00;;
42702;SDS011;28341;52.064;4.920;2022-07-29T02:58:02;4.65;;;2.22;;
42702;SDS011;28341;52.064;4.920;2022-07-29T03:00:11;4.40;;;2.33;;
42702;SDS011;28341;52.064;4.920;2022-07-29T03:02:17;4.65;;;2.28;;
42702;SDS011;28341;52.064;4.920;2022-07-29T03:04:25;5.30;;;2.40;;
42702;SDS011;28341;52.064;4.920;2022-07-29T03:06:30;3.90;;;2.35;;
42702;SDS011;28341;52.064;4.920;2022-07-29T03:08:34;7.65;;;2.60;;
42702;SDS011;28341;52.064;4.920;2022-07-29T03:10:40;10.02;;;2.42;;
42702;SDS011;28341;52.064;4.920;2022-07-29T03:12:48;4.82;;;2.65;;
42702;SDS011;28341;52.064;4.920;2022-07-29T03:14:52;7.53;;;2.80;;
42702;SDS011;28341;52.064;4.920;2022-07-29T03:16:57;7.80;;;2.45;;
42702;SDS011;28341;52.064;4.920;2022-07-29T03:19:01;5.90;;;2.42;;
42702;SDS011;28341;52.064;4.920;2022-07-29T03:21:09;7.82;;;2.50;;
42702;SDS011;28341;52.064;4.920;2022-07-29T03:23:17;3.50;;;2.58;;
42702;SDS011;28341;52.064;4.920;2022-07-29T03:25:24;5.85;;;2.33;;
42702;SDS011;28341;52.064;4.920;2022-07-29T03:27:28;6.18;;;2.30;;
42702;SDS011;28341;52.064;4.920;2022-07-29T03:29:32;6.85;;;2.60;;
42702;SDS011;28341;52.064;4.920;2022-07-29T03:31:37;5.53;;;2.83;;
42702;SDS011;28341;52.064;4.920;2022-07-29T03:33:41;6.78;;;2.60;;
42702;SDS011;28341;52.064;4.920;2022-07-29T03:35:46;4.80;;;2.60;;
42702;SDS011;28341;52.064;4.920;2022-07-29T03:37:52;5.78;;;2.42;;
42702;SDS011;28341;52.064;4.920;2022-07-29T03:39:57;6.88;;;2.90;;
42702;SDS011;28341;52.064;4.920;2022-07-29T03:42:03;6.78;;;2.60;;
42702;SDS011;28341;52.064;4.920;2022-07-29T03:44:09;7.45;;;2.75;;
42702;SDS011;28341;52.064;4.920;2022-07-29T03:46:13;8.23;;;2.88;;
42702;SDS011;28341;52.064;4.920;2022-07-29T03:48:21;6.40;;;2.80;;
42702;SDS011;28341;52.064;4.920;2022-07-29T03:50:26;3.95;;;2.42;;
42702;SDS011;28341;52.064;4.920;2022-07-29T03:52:31;8.50;;;2.80;;
42702;SDS011;28341;52.064;4.920;2022-07-29T03:54:38;5.85;;;2.45;;
42702;SDS011;28341;52.064;4.920;2022-07-29T03:56:43;7.07;;;2.60;;
42702;SDS011;28341;52.064;4.920;2022-07-29T03:58:50;6.13;;;2.70;;
42702;SDS011;28341;52.064;4.920;2022-07-29T04:00:55;7.43;;;2.83;;
42702;SDS011;28341;52.064;4.920;2022-07-29T04:03:00;6.95;;;2.70;;
42702;SDS011;28341;52.064;4.920;2022-07-29T04:05:05;5.28;;;2.47;;
42702;SDS011;28341;52.064;4.920;2022-07-29T04:07:15;6.25;;;2.60;;
42702;SDS011;28341;52.064;4.920;2022-07-29T04:09:20;4.65;;;2.42;;
42702;SDS011;28341;52.064;4.920;2022-07-29T04:11:27;6.07;;;2.60;;
42702;SDS011;28341;52.064;4.920;2022-07-29T04:13:31;7.53;;;2.40;;
42702;SDS011;28341;52.064;4.920;2022-07-29T04:15:36;5.00;;;2.60;;
42702;SDS011;28341;52.064;4.920;2022-07-29T04:17:41;9.05;;;2.83;;
42702;SDS011;28341;52.064;4.920;2022-07-29T04:19:45;5.25;;;2.58;;
42702;SDS011;28341;52.064;4.920;2022-07-29T04:21:49;5.53;;;2.35;;
42702;SDS011;28341;52.064;4.920;2022-07-29T04:23:54;8.23;;;2.70;;
42702;SDS011;28341;52.064;4.920;2022-07-29T04:25:58;4.53;;;2.60;;
42702;SDS011;28341;52.064;4.920;2022-07-29T04:28:06;6.80;;;2.50;;
42702;SDS011;28341;52.064;4.920;2022-07-29T04:30:10;6.35;;;2.53;;
42702;SDS011;28341;52.064;4.920;2022-07-29T04:32:15;7.72;;;3.22;;
42702;SDS011;28341;52.064;4.920;2022-07-29T04:34:19;6.35;;;2.40;;
42702;SDS011;28341;52.064;4.920;2022-07-29T04:36:24;6.95;;;2.55;;
42702;SDS011;28341;52.064;4.920;2022-07-29T04:38:28;5.30;;;2.65;;
42702;SDS011;28341;52.064;4.920;2022-07-29T04:40:33;5.38;;;2.90;;
42702;SDS011;28341;52.064;4.920;2022-07-29T04:42:37;8.40;;;2.70;;
42702;SDS011;28341;52.064;4.920;2022-07-29T04:44:44;7.20;;;2.97;;
42702;SDS011;28341;52.064;4.920;2022-07-29T04:46:48;6.47;;;2.72;;
42702;SDS011;28341;52.064;4.920;2022-07-29T04:48:53;6.93;;;2.85;;
42702;SDS011;28341;52.064;4.920;2022-07-29T04:50:57;4.63;;;2.55;;
42702;SDS011;28341;52.064;4.920;2022-07-29T04:53:01;6.85;;;3.00;;
42702;SDS011;28341;52.064;4.920;2022-07-29T04:55:06;7.95;;;2.55;;
42702;SDS011;28341;52.064;4.920;2022-07-29T04:57:11;5.80;;;2.80;;
42702;SDS011;28341;52.064;4.920;2022-07-29T04:59:16;2.95;;;2.60;;
42702;SDS011;28341;52.064;4.920;2022-07-29T05:01:23;10.27;;;3.03;;
42702;SDS011;28341;52.064;4.920;2022-07-29T05:03:27;6.82;;;2.63;;
42702;SDS011;28341;52.064;4.920;2022-07-29T05:05:31;6.85;;;2.80;;
42702;SDS011;28341;52.064;4.920;2022-07-29T05:07:36;7.97;;;2.90;;
42702;SDS011;28341;52.064;4.920;2022-07-29T05:09:40;3.90;;;2.70;;
42702;SDS011;28341;52.064;4.920;2022-07-29T05:11:44;7.80;;;2.88;;
42702;SDS011;28341;52.064;4.920;2022-07-29T05:13:49;5.93;;;2.92;;
42702;SDS011;28341;52.064;4.920;2022-07-29T05:15:53;8.80;;;3.25;;
42702;SDS011;28341;52.064;4.920;2022-07-29T05:18:01;10.35;;;3.00;;
42702;SDS011;28341;52.064;4.920;2022-07-29T05:20:06;6.82;;;2.83;;
42702;SDS011;28341;52.064;4.920;2022-07-29T05:22:12;4.90;;;2.78;;
42702;SDS011;28341;52.064;4.920;2022-07-29T05:24:16;7.13;;;3.03;;
42702;SDS011;28341;52.064;4.920;2022-07-29T05:26:20;6.55;;;3.45;;
42702;SDS011;28341;52.064;4.920;2022-07-29T05:28:25;5.43;;;2.90;;
42702;SDS011;28341;52.064;4.920;2022-07-29T05:30:29;5.72;;;2.67;;
42702;SDS011;28341;52.064;4.920;2022-07-29T05:32:33;7.57;;;2.83;;
42702;SDS011;28341;52.064;4.920;2022-07-29T05:34:40;10.07;;;3.72;;
42702;SDS011;28341;52.064;4.920;2022-07-29T05:36:45;11.18;;;3.42;;
42702;SDS011;28341;52.064;4.920;2022-07-29T05:38:50;6.43;;;3.35;;
42702;SDS011;28341;52.064;4.920;2022-07-29T05:40:56;6.85;;;2.88;;
42702;SDS011;28341;52.064;4.920;2022-07-29T05:43:01;6.38;;;3.17;;
42702;SDS011;28341;52.064;4.920;2022-07-29T05:45:06;10.60;;;3.67;;
42702;SDS011;28341;52.064;4.920;2022-07-29T05:47:11;6.15;;;3.17;;
42702;SDS011;28341;52.064;4.920;2022-07-29T05:49:16;10.57;;;3.30;;
42702;SDS011;28341;52.064;4.920;2022-07-29T05:51:23;7.65;;;3.08;;
42702;SDS011;28341;52.064;4.920;2022-07-29T05:53:27;9.38;;;3.50;;
42702;SDS011;28341;52.064;4.920;2022-07-29T05:55:32;7.03;;;3.25;;
42702;SDS011;28341;52.064;4.920;2022-07-29T05:57:36;6.57;;;3.20;;
42702;SDS011;28341;52.064;4.920;2022-07-29T05:59:41;5.82;;;2.70;;
42702;SDS011;28341;52.064;4.920;2022-07-29T06:01:45;4.25;;;3.03;;
42702;SDS011;28341;52.064;4.920;2022-07-29T06:03:49;8.57;;;2.92;;
42702;SDS011;28341;52.064;4.920;2022-07-29T06:05:54;5.20;;;2.58;;
42702;SDS011;28341;52.064;4.920;2022-07-29T06:08:00;5.35;;;2.80;;
42702;SDS011;28341;52.064;4.920;2022-07-29T06:10:06;7.65;;;2.65;;
42702;SDS011;28341;52.064;4.920;2022-07-29T06:12:11;3.75;;;2.15;;
42702;SDS011;28341;52.064;4.920;2022-07-29T06:14:15;6.03;;;2.78;;
42702;SDS011;28341;52.064;4.920;2022-07-29T06:16:19;5.15;;;2.80;;
42702;SDS011;28341;52.064;4.920;2022-07-29T06:18:24;4.70;;;2.25;;
42702;SDS011;28341;52.064;4.920;2022-07-29T06:20:29;4.53;;;2.92;;
42702;SDS011;28341;52.064;4.920;2022-07-29T06:22:34;5.88;;;2.42;;
42702;SDS011;28341;52.064;4.920;2022-07-29T06:24:41;5.78;;;2.20;;
42702;SDS011;28341;52.064;4.920;2022-07-29T06:26:45;3.20;;;2.05;;
42702;SDS011;28341;52.064;4.920;2022-07-29T06:28:49;2.45;;;1.85;;
42702;SDS011;28341;52.064;4.920;2022-07-29T06:30:54;6.40;;;2.47;;
42702;SDS011;28341;52.064;4.920;2022-07-29T06:32:58;6.30;;;2.67;;
42702;SDS011;28341;52.064;4.920;2022-07-29T06:35:03;7.20;;;2.60;;
42702;SDS011;28341;52.064;4.920;2022-07-29T06:37:09;5.13;;;2.28;;
42702;SDS011;28341;52.064;4.920;2022-07-29T06:39:13;6.80;;;3.28;;
42702;SDS011;28341;52.064;4.920;2022-07-29T06:41:20;6.20;;;2.60;;
42702;SDS011;28341;52.064;4.920;2022-07-29T06:43:24;7.55;;;2.10;;
42702;SDS011;28341;52.064;4.920;2022-07-29T06:45:33;6.38;;;2.08;;
42702;SDS011;28341;52.064;4.920;2022-07-29T06:47:41;3.65;;;2.10;;
42702;SDS011;28341;52.064;4.920;2022-07-29T06:49:45;4.93;;;2.03;;
42702;SDS011;28341;52.064;4.920;2022-07-29T06:51:49;7.72;;;2.28;;
42702;SDS011;28341;52.064;4.920;2022-07-29T06:53:53;6.30;;;2.17;;
42702;SDS011;28341;52.064;4.920;2022-07-29T06:55:58;5.28;;;2.15;;
42702;SDS011;28341;52.064;4.920;2022-07-29T06:58:06;8.20;;;3.15;;
42702;SDS011;28341;52.064;4.920;2022-07-29T07:00:11;6.75;;;1.80;;
42702;SDS011;28341;52.064;4.920;2022-07-29T07:02:17;6.28;;;2.25;;
42702;SDS011;28341;52.064;4.920;2022-07-29T07:04:21;7.28;;;2.47;;
42702;SDS011;28341;52.064;4.920;2022-07-29T07:06:26;5.35;;;2.10;;
42702;SDS011;28341;52.064;4.920;2022-07-29T07:08:30;5.18;;;2.13;;
42702;SDS011;28341;52.064;4.920;2022-07-29T07:10:34;5.28;;;2.17;;
42702;SDS011;28341;52.064;4.920;2022-07-29T07:12:39;5.70;;;1.90;;
42702;SDS011;28341;52.064;4.920;2022-07-29T07:14:46;4.00;;;1.95;;
42702;SDS011;28341;52.064;4.920;2022-07-29T07:16:50;6.07;;;2.10;;
42702;SDS011;28341;52.064;4.920;2022-07-29T07:18:54;4.53;;;2.03;;
42702;SDS011;28341;52.064;4.920;2022-07-29T07:20:59;4.80;;;2.40;;
42702;SDS011;28341;52.064;4.920;2022-07-29T07:23:05;6.97;;;2.33;;
42702;SDS011;28341;52.064;4.920;2022-07-29T07:25:09;9.27;;;2.55;;
42702;SDS011;28341;52.064;4.920;2022-07-29T07:27:14;4.50;;;1.98;;
42702;SDS011;28341;52.064;4.920;2022-07-29T07:29:18;4.80;;;2.13;;
42702;SDS011;28341;52.064;4.920;2022-07-29T07:31:25;6.30;;;2.78;;
42702;SDS011;28341;52.064;4.920;2022-07-29T07:33:29;7.15;;;2.90;;
42702;SDS011;28341;52.064;4.920;2022-07-29T07:35:34;6.63;;;2.40;;
42702;SDS011;28341;52.064;4.920;2022-07-29T07:37:39;9.18;;;2.47;;
42702;SDS011;28341;52.064;4.920;2022-07-29T07:39:43;4.30;;;2.05;;
42702;SDS011;28341;52.064;4.920;2022-07-29T07:41:47;7.57;;;2.25;;
42702;SDS011;28341;52.064;4.920;2022-07-29T07:43:52;6.13;;;2.10;;
42702;SDS011;28341;52.064;4.920;2022-07-29T07:45:56;3.67;;;2.00;;
42702;SDS011;28341;52.064;4.920;2022-07-29T07:48:03;5.40;;;2.25;;
42702;SDS011;28341;52.064;4.920;2022-07-29T07:50:10;6.63;;;2.20;;
42702;SDS011;28341;52.064;4.920;2022-07-29T07:52:18;5.68;;;2.15;;
42702;SDS011;28341;52.064;4.920;2022-07-29T07:54:24;6.60;;;2.15;;
42702;SDS011;28341;52.064;4.920;2022-07-29T07:56:29;6.68;;;1.90;;
42702;SDS011;28341;52.064;4.920;2022-07-29T07:58:33;4.43;;;2.30;;
42702;SDS011;28341;52.064;4.920;2022-07-29T08:00:37;5.65;;;2.10;;
42702;SDS011;28341;52.064;4.920;2022-07-29T08:02:42;4.90;;;1.75;;
42702;SDS011;28341;52.064;4.920;2022-07-29T08:04:50;5.25;;;2.50;;
42702;SDS011;28341;52.064;4.920;2022-07-29T08:06:54;4.65;;;2.38;;
42702;SDS011;28341;52.064;4.920;2022-07-29T08:09:00;5.63;;;2.60;;
42702;SDS011;28341;52.064;4.920;2022-07-29T08:11:04;5.07;;;2.53;;
42702;SDS011;28341;52.064;4.920;2022-07-29T08:13:09;6.65;;;2.30;;
42702;SDS011;28341;52.064;4.920;2022-07-29T08:15:13;4.60;;;2.33;;
42702;SDS011;28341;52.064;4.920;2022-07-29T08:17:18;5.60;;;2.50;;
42702;SDS011;28341;52.064;4.920;2022-07-29T08:19:22;4.47;;;1.85;;
42702;SDS011;28341;52.064;4.920;2022-07-29T08:21:29;4.20;;;2.08;;
42702;SDS011;28341;52.064;4.920;2022-07-29T08:23:33;6.43;;;2.40;;
42702;SDS011;28341;52.064;4.920;2022-07-29T08:25:38;6.38;;;2.50;;
42702;SDS011;28341;52.064;4.920;2022-07-29T08:27:43;4.45;;;2.22;;
42702;SDS011;28341;52.064;4.920;2022-07-29T08:29:47;5.97;;;2.30;;
42702;SDS011;28341;52.064;4.920;2022-07-29T08:31:52;6.28;;;2.28;;
42702;SDS011;28341;52.064;4.920;2022-07-29T08:33:56;5.03;;;2.45;;
42702;SDS011;28341;52.064;4.920;2022-07-29T08:36:01;8.48;;;2.70;;
42702;SDS011;28341;52.064;4.920;2022-07-29T08:38:08;5.22;;;2.80;;
42702;SDS011;28341;52.064;4.920;2022-07-29T08:40:13;7.03;;;2.50;;
42702;SDS011;28341;52.064;4.920;2022-07-29T08:42:17;4.95;;;2.55;;
42702;SDS011;28341;52.064;4.920;2022-07-29T08:44:21;6.43;;;2.30;;
42702;SDS011;28341;52.064;4.920;2022-07-29T08:46:27;6.75;;;1.95;;
42702;SDS011;28341;52.064;4.920;2022-07-29T08:48:31;4.38;;;2.47;;
42702;SDS011;28341;52.064;4.920;2022-07-29T08:50:36;4.70;;;2.33;;
42702;SDS011;28341;52.064;4.920;2022-07-29T08:52:41;6.70;;;2.53;;
42702;SDS011;28341;52.064;4.920;2022-07-29T08:54:49;6.00;;;2.28;;
42702;SDS011;28341;52.064;4.920;2022-07-29T08:56:53;7.22;;;2.95;;
42702;SDS011;28341;52.064;4.920;2022-07-29T08:58:58;7.22;;;3.15;;
42702;SDS011;28341;52.064;4.920;2022-07-29T09:01:03;8.10;;;2.50;;
42702;SDS011;28341;52.064;4.920;2022-07-29T09:03:07;8.18;;;2.25;;
42702;SDS011;28341;52.064;4.920;2022-07-29T09:05:13;5.47;;;2.40;;
42702;SDS011;28341;52.064;4.920;2022-07-29T09:07:18;7.80;;;2.75;;
42702;SDS011;28341;52.064;4.920;2022-07-29T09:09:22;6.82;;;2.38;;
42702;SDS011;28341;52.064;4.920;2022-07-29T09:11:29;6.45;;;2.42;;
42702;SDS011;28341;52.064;4.920;2022-07-29T09:13:36;5.57;;;2.60;;
42702;SDS011;28341;52.064;4.920;2022-07-29T09:15:40;6.10;;;3.00;;
42702;SDS011;28341;52.064;4.920;2022-07-29T09:17:45;6.28;;;2.67;;
42702;SDS011;28341;52.064;4.920;2022-07-29T09:19:50;10.60;;;3.13;;
42702;SDS011;28341;52.064;4.920;2022-07-29T09:21:55;6.13;;;2.88;;
42702;SDS011;28341;52.064;4.920;2022-07-29T09:24:02;6.40;;;2.53;;
42702;SDS011;28341;52.064;4.920;2022-07-29T09:26:12;9.90;;;2.58;;
42702;SDS011;28341;52.064;4.920;2022-07-29T09:28:19;4.47;;;2.50;;
42702;SDS011;28341;52.064;4.920;2022-07-29T09:30:23;4.82;;;2.88;;
42702;SDS011;28341;52.064;4.920;2022-07-29T09:32:28;4.95;;;2.67;;
42702;SDS011;28341;52.064;4.920;2022-07-29T09:34:32;5.32;;;2.70;;
42702;SDS011;28341;52.064;4.920;2022-07-29T09:36:40;5.40;;;2.85;;
42702;SDS011;28341;52.064;4.920;2022-07-29T09:38:47;8.38;;;2.97;;
42702;SDS011;28341;52.064;4.920;2022-07-29T09:41:03;7.97;;;2.70;;
42702;SDS011;28341;52.064;4.920;2022-07-29T09:43:10;10.02;;;2.78;;
42702;SDS011;28341;52.064;4.920;2022-07-29T09:45:28;4.28;;;2.50;;
42702;SDS011;28341;52.064;4.920;2022-07-29T09:47:40;8.52;;;2.90;;
42702;SDS011;28341;52.064;4.920;2022-07-29T09:49:53;6.03;;;2.60;;
42702;SDS011;28341;52.064;4.920;2022-07-29T09:52:04;6.38;;;2.45;;
42702;SDS011;28341;52.064;4.920;2022-07-29T09:54:23;7.82;;;2.65;;
42702;SDS011;28341;52.064;4.920;2022-07-29T09:58:42;7.35;;;2.88;;
42702;SDS011;28341;52.064;4.920;2022-07-29T10:00:49;7.70;;;3.03;;
42702;SDS011;28341;52.064;4.920;2022-07-29T10:02:55;7.10;;;2.50;;
42702;SDS011;28341;52.064;4.920;2022-07-29T10:05:04;13.35;;;3.20;;
42702;SDS011;28341;52.064;4.920;2022-07-29T10:07:20;6.85;;;2.75;;
42702;SDS011;28341;52.064;4.920;2022-07-29T10:09:25;10.95;;;2.85;;
42702;SDS011;28341;52.064;4.920;2022-07-29T10:11:29;8.68;;;2.63;;
42702;SDS011;28341;52.064;4.920;2022-07-29T10:13:34;7.22;;;3.00;;
42702;SDS011;28341;52.064;4.920;2022-07-29T10:15:39;5.28;;;2.88;;
42702;SDS011;28341;52.064;4.920;2022-07-29T10:17:48;6.85;;;2.50;;
42702;SDS011;28341;52.064;4.920;2022-07-29T10:19:53;9.07;;;2.80;;
42702;SDS011;28341;52.064;4.920;2022-07-29T10:21:57;7.70;;;2.63;;
42702;SDS011;28341;52.064;4.920;2022-07-29T10:24:04;6.40;;;2.35;;
42702;SDS011;28341;52.064;4.920;2022-07-29T10:26:09;7.50;;;2.50;;
42702;SDS011;28341;52.064;4.920;2022-07-29T10:28:14;7.13;;;2.92;;
42702;SDS011;28341;52.064;4.920;2022-07-29T10:30:19;5.40;;;2.15;;
42702;SDS011;28341;52.064;4.920;2022-07-29T10:32:29;5.50;;;2.42;;
42702;SDS011;28341;52.064;4.920;2022-07-29T10:37:52;8.15;;;2.83;;
42702;SDS011;28341;52.064;4.920;2022-07-29T10:40:26;6.50;;;2.90;;
42702;SDS011;28341;52.064;4.920;2022-07-29T10:42:49;6.20;;;2.97;;
42702;SDS011;28341;52.064;4.920;2022-07-29T10:44:56;6.85;;;2.97;;
42702;SDS011;28341;52.064;4.920;2022-07-29T10:47:01;13.38;;;3.03;;
42702;SDS011;28341;52.064;4.920;2022-07-29T10:49:06;5.47;;;2.83;;
42702;SDS011;28341;52.064;4.920;2022-07-29T10:51:17;12.07;;;3.10;;
42702;SDS011;28341;52.064;4.920;2022-07-29T10:53:23;6.78;;;2.53;;
42702;SDS011;28341;52.064;4.920;2022-07-29T10:55:31;8.38;;;2.75;;
42702;SDS011;28341;52.064;4.920;2022-07-29T10:57:40;6.30;;;2.83;;
42702;SDS011;28341;52.064;4.920;2022-07-29T11:00:31;7.95;;;3.35;;
42702;SDS011;28341;52.064;4.920;2022-07-29T11:02:42;6.82;;;2.75;;
42702;SDS011;28341;52.064;4.920;2022-07-29T11:04:58;11.38;;;2.88;;
42702;SDS011;28341;52.064;4.920;2022-07-29T11:07:09;11.02;;;2.80;;
42702;SDS011;28341;52.064;4.920;2022-07-29T11:11:31;5.93;;;2.88;;
42702;SDS011;28341;52.064;4.920;2022-07-29T11:13:44;5.28;;;3.20;;
42702;SDS011;28341;52.064;4.920;2022-07-29T11:15:53;7.60;;;2.97;;
42702;SDS011;28341;52.064;4.920;2022-07-29T11:18:05;9.10;;;3.33;;
42702;SDS011;28341;52.064;4.920;2022-07-29T11:22:37;10.07;;;3.40;;
42702;SDS011;28341;52.064;4.920;2022-07-29T11:24:41;9.13;;;3.28;;
42702;SDS011;28341;52.064;4.920;2022-07-29T11:26:59;9.13;;;3.05;;
42702;SDS011;28341;52.064;4.920;2022-07-29T11:29:16;4.90;;;2.90;;
42702;SDS011;28341;52.064;4.920;2022-07-29T11:31:37;8.68;;;3.40;;
42702;SDS011;28341;52.064;4.920;2022-07-29T11:33:43;7.80;;;2.88;;
42702;SDS011;28341;52.064;4.920;2022-07-29T11:36:01;5.97;;;2.90;;
42702;SDS011;28341;52.064;4.920;2022-07-29T11:38:27;12.40;;;2.72;;
42702;SDS011;28341;52.064;4.920;2022-07-29T11:40:35;6.15;;;3.05;;
42702;SDS011;28341;52.064;4.920;2022-07-29T11:42:40;6.70;;;3.10;;
42702;SDS011;28341;52.064;4.920;2022-07-29T11:47:00;8.07;;;3.38;;
42702;SDS011;28341;52.064;4.920;2022-07-29T11:49:05;9.73;;;2.92;;
42702;SDS011;28341;52.064;4.920;2022-07-29T11:51:10;6.47;;;3.10;;
42702;SDS011;28341;52.064;4.920;2022-07-29T11:53:15;8.05;;;3.00;;
42702;SDS011;28341;52.064;4.920;2022-07-29T11:55:22;7.00;;;2.63;;
42702;SDS011;28341;52.064;4.920;2022-07-29T11:57:28;8.63;;;3.47;;
42702;SDS011;28341;52.064;4.920;2022-07-29T11:59:37;8.38;;;2.70;;
42702;SDS011;28341;52.064;4.920;2022-07-29T12:01:51;12.07;;;2.90;;
42702;SDS011;28341;52.064;4.920;2022-07-29T12:04:01;8.57;;;2.80;;
42702;SDS011;28341;52.064;4.920;2022-07-29T12:06:11;5.32;;;2.60;;
42702;SDS011;28341;52.064;4.920;2022-07-29T12:08:17;6.88;;;2.80;;
42702;SDS011;28341;52.064;4.920;2022-07-29T12:10:25;9.50;;;2.65;;
42702;SDS011;28341;52.064;4.920;2022-07-29T12:12:34;7.57;;;2.80;;
42702;SDS011;28341;52.064;4.920;2022-07-29T12:14:38;7.90;;;2.90;;
42702;SDS011;28341;52.064;4.920;2022-07-29T12:16:46;5.78;;;2.78;;
42702;SDS011;28341;52.064;4.920;2022-07-29T12:18:57;5.80;;;2.55;;
42702;SDS011;28341;52.064;4.920;2022-07-29T12:21:03;5.97;;;2.60;;
42702;SDS011;28341;52.064;4.920;2022-07-29T12:23:08;6.95;;;3.17;;
42702;SDS011;28341;52.064;4.920;2022-07-29T12:25:15;8.10;;;2.55;;
42702;SDS011;28341;52.064;4.920;2022-07-29T12:27:22;8.13;;;2.67;;
42702;SDS011;28341;52.064;4.920;2022-07-29T12:29:26;6.68;;;1.98;;
42702;SDS011;28341;52.064;4.920;2022-07-29T12:31:31;6.85;;;2.88;;
42702;SDS011;28341;52.064;4.920;2022-07-29T12:33:35;8.35;;;2.97;;
42702;SDS011;28341;52.064;4.920;2022-07-29T12:35:40;7.47;;;2.50;;
42702;SDS011;28341;52.064;4.920;2022-07-29T12:37:47;6.57;;;2.80;;
42702;SDS011;28341;52.064;4.920;2022-07-29T12:39:52;8.60;;;3.65;;
42702;SDS011;28341;52.064;4.920;2022-07-29T12:41:56;6.88;;;2.65;;
42702;SDS011;28341;52.064;4.920;2022-07-29T12:44:04;10.23;;;2.88;;
42702;SDS011;28341;52.064;4.920;2022-07-29T12:46:12;8.77;;;2.78;;
42702;SDS011;28341;52.064;4.920;2022-07-29T12:48:17;5.05;;;2.40;;
42702;SDS011;28341;52.064;4.920;2022-07-29T12:50:51;5.75;;;2.60;;
42702;SDS011;28341;52.064;4.920;2022-07-29T12:53:07;5.93;;;2.63;;
42702;SDS011;28341;52.064;4.920;2022-07-29T12:55:13;8.73;;;2.38;;
42702;SDS011;28341;52.064;4.920;2022-07-29T12:57:18;5.28;;;2.22;;